createdAt,value
2019-04-10T00:00:23.914Z,1000.54
2019-04-10T00:01:23.902Z,1000.54
2019-04-10T00:02:23.890Z,1000.61
2019-04-10T00:03:32.328Z,1000.52
2019-04-10T00:04:25.224Z,1000.61
2019-04-10T00:05:23.857Z,1000.52
2019-04-10T00:06:23.844Z,1000.60
2019-04-10T00:07:23.835Z,1000.49
2019-04-10T00:08:23.822Z,1000.54
2019-04-10T00:09:23.811Z,1000.55
2019-04-10T00:10:23.817Z,1000.62
2019-04-10T00:11:24.821Z,1000.60
2019-04-10T00:12:23.781Z,1000.56
2019-04-10T00:13:24.702Z,1000.59
2019-04-10T00:14:24.057Z,1000.62
2019-04-10T00:15:24.321Z,1000.65
2019-04-10T00:16:24.491Z,1000.60
2019-04-10T00:17:23.719Z,1000.67
2019-04-10T00:18:24.139Z,1000.62
2019-04-10T00:19:23.716Z,1000.74
2019-04-10T00:20:24.565Z,1000.59
2019-04-10T00:21:23.672Z,1000.59
2019-04-10T00:22:24.311Z,1000.59
2019-04-10T00:23:24.762Z,1000.63
2019-04-10T00:24:23.989Z,1000.67
2019-04-10T00:25:24.423Z,1000.68
2019-04-10T00:26:23.819Z,1000.68
2019-04-10T00:27:23.604Z,1000.66
2019-04-10T00:28:23.593Z,1000.65
2019-04-10T00:29:24.515Z,1000.68
2019-04-10T00:30:23.598Z,1000.70
2019-04-10T00:31:24.332Z,1000.71
2019-04-10T00:32:23.800Z,1000.71
2019-04-10T00:33:23.557Z,1000.69
2019-04-10T00:34:23.524Z,1000.75
2019-04-10T00:35:23.662Z,1000.67
2019-04-10T00:36:23.501Z,1000.70
2019-04-10T00:37:28.159Z,1000.71
2019-04-10T00:38:24.477Z,1000.73
2019-04-10T00:39:23.478Z,1000.75
2019-04-10T00:40:23.670Z,1000.69
2019-04-10T00:41:23.981Z,1000.70
2019-04-10T00:42:23.433Z,1000.69
2019-04-10T00:43:24.517Z,1000.76
2019-04-10T00:44:23.761Z,1000.70
2019-04-10T00:45:23.420Z,1000.76
2019-04-10T00:46:24.283Z,1000.71
2019-04-10T00:47:23.374Z,1000.71
2019-04-10T00:48:23.948Z,1000.77
2019-04-10T00:49:23.930Z,1000.80
2019-04-10T00:50:23.381Z,1000.76
2019-04-10T00:51:23.554Z,1000.82
2019-04-10T00:52:24.083Z,1000.75
2019-04-10T00:53:23.337Z,1000.69
2019-04-10T00:54:23.741Z,1000.80
2019-04-10T00:55:23.785Z,1000.75
2019-04-10T00:56:24.282Z,1000.78
2019-04-10T00:57:23.582Z,1000.77
2019-04-10T00:58:23.254Z,1000.81
2019-04-10T00:59:24.137Z,1000.73
2019-04-10T01:00:23.581Z,1000.74
2019-04-10T01:01:23.683Z,1000.73
2019-04-10T01:02:23.209Z,1000.71
2019-04-10T01:03:23.613Z,1000.66
2019-04-10T01:04:23.178Z,1000.75
2019-04-10T01:05:23.167Z,1000.74
2019-04-10T01:06:24.111Z,1000.71
2019-04-10T01:07:33.704Z,1000.65
2019-04-10T01:08:24.495Z,1000.65
2019-04-10T01:09:23.657Z,1000.66
2019-04-10T01:10:23.138Z,1000.65
2019-04-10T01:11:23.237Z,1000.67
2019-04-10T01:12:23.630Z,1000.72
2019-04-10T01:13:23.075Z,1000.69
2019-04-10T01:14:23.403Z,1000.68
2019-04-10T01:15:23.051Z,1000.68
2019-04-10T01:16:23.177Z,1000.76
2019-04-10T01:17:23.031Z,1000.71
2019-04-10T01:18:23.397Z,1000.67
2019-04-10T01:19:23.849Z,1000.73
2019-04-10T01:20:23.816Z,1000.71
2019-04-10T01:21:23.185Z,1000.73
2019-04-10T01:22:23.937Z,1000.70
2019-04-10T01:23:22.958Z,1000.73
2019-04-10T01:24:23.745Z,1000.74
2019-04-10T01:25:24.122Z,1000.73
2019-04-10T01:26:23.296Z,1000.75
2019-04-10T01:27:23.662Z,1000.77
2019-04-10T01:28:22.901Z,1000.74
2019-04-10T01:29:22.890Z,1000.70
2019-04-10T01:30:22.876Z,1000.72
2019-04-10T01:31:23.297Z,1000.69
2019-04-10T01:32:23.791Z,1000.67
2019-04-10T01:33:22.848Z,1000.73
2019-04-10T01:34:22.838Z,1000.67
2019-04-10T01:35:22.820Z,1000.65
2019-04-10T01:36:22.873Z,1000.68
2019-04-10T01:37:22.991Z,1000.69
2019-04-10T01:38:22.782Z,1000.70
2019-04-10T01:39:22.773Z,1000.71
2019-04-10T01:40:23.419Z,1000.71
2019-04-10T01:41:23.804Z,1000.70
2019-04-10T01:42:22.907Z,1000.68
2019-04-10T01:43:22.724Z,1000.71
2019-04-10T01:44:22.798Z,1000.74
2019-04-10T01:45:22.703Z,1000.73
2019-04-10T01:46:22.693Z,1000.76
2019-04-10T01:47:23.424Z,1000.73
2019-04-10T01:48:23.780Z,1000.70
2019-04-10T01:49:22.655Z,1000.69
2019-04-10T01:50:22.648Z,1000.70
2019-04-10T01:51:23.413Z,1000.70
2019-04-10T01:52:22.771Z,1000.65
2019-04-10T01:53:22.631Z,1000.57
2019-04-10T01:54:22.779Z,1000.70
2019-04-10T01:55:25.768Z,1000.68
2019-04-10T01:56:29.432Z,1000.64
2019-04-10T01:57:24.065Z,1000.69
2019-04-10T01:58:23.181Z,1000.64
2019-04-10T01:59:23.392Z,1000.67
2019-04-10T02:00:23.598Z,1000.66
2019-04-10T02:01:22.517Z,1000.62
2019-04-10T02:02:23.178Z,1000.82
2019-04-10T02:03:22.493Z,1000.78
2019-04-10T02:04:22.803Z,1000.75
2019-04-10T02:05:22.804Z,1000.79
2019-04-10T02:06:22.458Z,1000.74
2019-04-10T02:07:23.113Z,1000.66
2019-04-10T02:08:23.579Z,1000.72
2019-04-10T02:09:23.433Z,1000.74
2019-04-10T02:10:22.415Z,1000.71
2019-04-10T02:11:22.405Z,1000.78
2019-04-10T02:12:22.846Z,1000.78
2019-04-10T02:13:23.322Z,1000.72
2019-04-10T02:14:22.469Z,1000.71
2019-04-10T02:15:22.353Z,1000.73
2019-04-10T02:16:22.894Z,1000.78
2019-04-10T02:17:22.335Z,1000.71
2019-04-10T02:18:23.435Z,1000.77
2019-04-10T02:19:22.311Z,1000.77
2019-04-10T02:20:22.974Z,1000.70
2019-04-10T02:21:23.387Z,1000.74
2019-04-10T02:22:22.559Z,1000.76
2019-04-10T02:23:22.594Z,1000.80
2019-04-10T02:24:22.969Z,1000.80
2019-04-10T02:25:22.261Z,1000.72
2019-04-10T02:26:22.355Z,1000.84
2019-04-10T02:27:22.498Z,1000.79
2019-04-10T02:28:22.767Z,1000.74
2019-04-10T02:29:22.196Z,1000.69
2019-04-10T02:30:23.904Z,1000.75
2019-04-10T02:31:24.142Z,1000.75
2019-04-10T02:32:22.163Z,1000.73
2019-04-10T02:33:23.258Z,1000.77
2019-04-10T02:34:23.218Z,1000.67
2019-04-10T02:35:24.594Z,1000.64
2019-04-10T02:36:23.521Z,1000.70
2019-04-10T02:37:22.911Z,1000.62
2019-04-10T02:38:38.674Z,1000.67
2019-04-10T02:39:27.443Z,1000.65
2019-04-10T02:40:23.582Z,1000.66
2019-04-10T02:41:22.167Z,1000.74
2019-04-10T02:42:22.597Z,1000.68
2019-04-10T02:43:23.274Z,1000.72
2019-04-10T02:44:22.926Z,1000.76
2019-04-10T02:45:22.143Z,1000.78
2019-04-10T02:46:22.153Z,1000.76
2019-04-10T02:47:23.076Z,1000.82
2019-04-10T02:48:23.364Z,1000.76
2019-04-10T02:49:22.506Z,1000.80
2019-04-10T02:50:21.984Z,1000.81
2019-04-10T02:51:23.641Z,1000.79
2019-04-10T02:52:22.648Z,1000.77
2019-04-10T02:53:23.260Z,1000.86
2019-04-10T02:54:21.912Z,1000.88
2019-04-10T02:55:23.030Z,1000.84
2019-04-10T02:56:23.758Z,1000.94
2019-04-10T02:57:22.016Z,1000.83
2019-04-10T02:58:22.267Z,1000.81
2019-04-10T02:59:23.318Z,1000.85
2019-04-10T03:00:22.535Z,1000.93
2019-04-10T03:01:23.500Z,1000.89
2019-04-10T03:02:22.097Z,1000.93
2019-04-10T03:03:22.454Z,1000.92
2019-04-10T03:04:22.123Z,1000.84
2019-04-10T03:05:23.713Z,1000.91
2019-04-10T03:06:22.841Z,1000.89
2019-04-10T03:07:22.105Z,1000.84
2019-04-10T03:08:38.279Z,1000.92
2019-04-10T03:09:37.126Z,1000.82
2019-04-10T03:10:30.022Z,1000.91
2019-04-10T03:11:24.355Z,1000.86
2019-04-10T03:12:21.978Z,1000.91
2019-04-10T03:13:21.958Z,1000.84
2019-04-10T03:14:21.687Z,1000.90
2019-04-10T03:15:23.096Z,1000.95
2019-04-10T03:16:21.711Z,1000.94
2019-04-10T03:17:21.652Z,1000.95
2019-04-10T03:18:21.638Z,1000.96
2019-04-10T03:19:21.627Z,1000.98
2019-04-10T03:20:22.461Z,1000.99
2019-04-10T03:21:22.777Z,1001.02
2019-04-10T03:22:21.594Z,1001.00
2019-04-10T03:23:21.582Z,1000.99
2019-04-10T03:24:21.568Z,1000.98
2019-04-10T03:25:21.563Z,1000.98
2019-04-10T03:26:21.581Z,1000.92
2019-04-10T03:27:22.576Z,1000.92
2019-04-10T03:28:21.527Z,1000.99
2019-04-10T03:29:21.972Z,1001.00
2019-04-10T03:30:23.459Z,1000.95
2019-04-10T03:31:22.953Z,1000.99
2019-04-10T03:32:23.090Z,1001.02
2019-04-10T03:33:26.563Z,1000.96
2019-04-10T03:34:23.086Z,1001.08
2019-04-10T03:35:21.445Z,1001.01
2019-04-10T03:36:21.431Z,1001.06
2019-04-10T03:37:22.357Z,1001.04
2019-04-10T03:38:21.732Z,1001.00
2019-04-10T03:39:21.685Z,1001.07
2019-04-10T03:40:21.645Z,1001.08
2019-04-10T03:41:21.385Z,1001.10
2019-04-10T03:42:21.383Z,1001.05
2019-04-10T03:43:21.613Z,1001.05
2019-04-10T03:44:21.342Z,1001.05
2019-04-10T03:45:22.389Z,1001.10
2019-04-10T03:46:21.503Z,1001.04
2019-04-10T03:47:21.329Z,1001.09
2019-04-10T03:48:21.299Z,1001.07
2019-04-10T03:49:22.103Z,1001.02
2019-04-10T03:50:21.277Z,1001.07
2019-04-10T03:51:21.264Z,1001.01
2019-04-10T03:52:21.270Z,1001.07
2019-04-10T03:53:22.308Z,1001.10
2019-04-10T03:54:21.242Z,1001.12
2019-04-10T03:55:21.236Z,1001.15
2019-04-10T03:56:21.403Z,1001.16
2019-04-10T03:57:21.251Z,1001.13
2019-04-10T03:58:21.185Z,1001.09
2019-04-10T03:59:22.273Z,1001.11
2019-04-10T04:00:22.356Z,1001.08
2019-04-10T04:01:21.149Z,1001.07
2019-04-10T04:02:21.919Z,1001.07
2019-04-10T04:03:21.128Z,1001.08
2019-04-10T04:04:21.649Z,1001.11
2019-04-10T04:05:21.103Z,1001.10
2019-04-10T04:06:21.683Z,1001.10
2019-04-10T04:07:21.080Z,1001.10
2019-04-10T04:08:21.581Z,1001.19
2019-04-10T04:09:21.680Z,1001.22
2019-04-10T04:10:21.046Z,1001.20
2019-04-10T04:11:21.772Z,1001.21
2019-04-10T04:12:21.025Z,1001.16
2019-04-10T04:13:21.667Z,1001.19
2019-04-10T04:14:21.984Z,1001.15
2019-04-10T04:15:21.965Z,1001.17
2019-04-10T04:16:20.980Z,1001.14
2019-04-10T04:17:22.135Z,1001.18
2019-04-10T04:18:21.382Z,1001.16
2019-04-10T04:19:21.800Z,1001.15
2019-04-10T04:20:21.186Z,1001.27
2019-04-10T04:21:20.923Z,1001.20
2019-04-10T04:22:20.973Z,1001.29
2019-04-10T04:23:21.492Z,1001.15
2019-04-10T04:24:22.553Z,1001.19
2019-04-10T04:25:21.923Z,1001.24
2019-04-10T04:26:21.259Z,1001.19
2019-04-10T04:27:21.604Z,1001.15
2019-04-10T04:28:20.863Z,1001.21
2019-04-10T04:29:20.832Z,1001.20
2019-04-10T04:30:20.821Z,1001.25
2019-04-10T04:31:20.810Z,1001.21
2019-04-10T04:32:21.780Z,1001.19
2019-04-10T04:33:21.140Z,1001.25
2019-04-10T04:34:20.946Z,1001.24
2019-04-10T04:35:20.763Z,1001.21
2019-04-10T04:36:20.752Z,1001.19
2019-04-10T04:37:20.910Z,1001.24
2019-04-10T04:38:20.731Z,1001.29
2019-04-10T04:39:26.205Z,1001.28
2019-04-10T04:40:21.830Z,1001.34
2019-04-10T04:41:20.697Z,1001.35
2019-04-10T04:42:20.683Z,1001.30
2019-04-10T04:43:21.734Z,1001.30
2019-04-10T04:44:20.680Z,1001.36
2019-04-10T04:45:21.541Z,1001.40
2019-04-10T04:46:20.639Z,1001.44
2019-04-10T04:47:20.630Z,1001.43
2019-04-10T04:48:21.846Z,1001.40
2019-04-10T04:49:20.759Z,1001.40
2019-04-10T04:50:20.596Z,1001.42
2019-04-10T04:51:20.583Z,1001.47
2019-04-10T04:52:20.575Z,1001.50
2019-04-10T04:53:20.561Z,1001.47
2019-04-10T04:54:21.324Z,1001.48
2019-04-10T04:55:20.538Z,1001.58
2019-04-10T04:56:20.527Z,1001.52
2019-04-10T04:57:20.537Z,1001.51
2019-04-10T04:58:20.502Z,1001.56
2019-04-10T04:59:20.640Z,1001.53
2019-04-10T05:00:21.498Z,1001.56
2019-04-10T05:01:21.069Z,1001.54
2019-04-10T05:02:20.459Z,1001.53
2019-04-10T05:03:20.815Z,1001.57
2019-04-10T05:04:20.525Z,1001.61
2019-04-10T05:05:20.477Z,1001.59
2019-04-10T05:06:20.410Z,1001.63
2019-04-10T05:07:20.547Z,1001.64
2019-04-10T05:08:20.388Z,1001.63
2019-04-10T05:09:30.153Z,1001.63
2019-04-10T05:10:21.387Z,1001.69
2019-04-10T05:11:20.540Z,1001.71
2019-04-10T05:12:20.369Z,1001.70
2019-04-10T05:13:20.333Z,1001.70
2019-04-10T05:14:20.323Z,1001.77
2019-04-10T05:15:20.641Z,1001.76
2019-04-10T05:16:20.658Z,1001.79
2019-04-10T05:17:20.286Z,1001.76
2019-04-10T05:18:21.231Z,1001.85
2019-04-10T05:19:21.081Z,1001.74
2019-04-10T05:20:20.283Z,1001.75
2019-04-10T05:21:21.318Z,1001.82
2019-04-10T05:22:20.229Z,1001.80
2019-04-10T05:23:20.254Z,1001.82
2019-04-10T05:24:20.209Z,1001.89
2019-04-10T05:25:21.071Z,1001.85
2019-04-10T05:26:20.775Z,1001.86
2019-04-10T05:27:20.176Z,1001.86
2019-04-10T05:28:20.443Z,1001.93
2019-04-10T05:29:20.151Z,1001.93
2019-04-10T05:30:20.671Z,1001.99
2019-04-10T05:31:20.128Z,1001.98
2019-04-10T05:32:21.326Z,1002.09
2019-04-10T05:33:20.565Z,1002.06
2019-04-10T05:34:20.096Z,1002.08
2019-04-10T05:35:20.101Z,1002.06
2019-04-10T05:36:20.074Z,1002.06
2019-04-10T05:37:21.193Z,1002.13
2019-04-10T05:38:20.758Z,1002.15
2019-04-10T05:39:20.041Z,1002.12
2019-04-10T05:40:20.045Z,1002.13
2019-04-10T05:41:20.040Z,1002.15
2019-04-10T05:42:20.603Z,1002.17
2019-04-10T05:43:20.030Z,1002.16
2019-04-10T05:44:20.190Z,1002.20
2019-04-10T05:45:21.143Z,1002.19
2019-04-10T05:46:21.520Z,1002.22
2019-04-10T05:47:19.949Z,1002.18
2019-04-10T05:48:22.474Z,1002.20
2019-04-10T05:49:20.663Z,1002.18
2019-04-10T05:50:19.934Z,1002.23
2019-04-10T05:51:19.904Z,1002.26
2019-04-10T05:52:20.347Z,1002.27
2019-04-10T05:53:20.387Z,1002.26
2019-04-10T05:54:19.866Z,1002.28
2019-04-10T05:55:20.430Z,1002.30
2019-04-10T05:56:20.699Z,1002.29
2019-04-10T05:57:20.238Z,1002.28
2019-04-10T05:58:19.822Z,1002.28
2019-04-10T05:59:19.814Z,1002.29
2019-04-10T06:00:20.786Z,1002.33
2019-04-10T06:01:31.423Z,1002.35
2019-04-10T06:02:20.775Z,1002.30
2019-04-10T06:03:20.712Z,1002.34
2019-04-10T06:04:19.753Z,1002.37
2019-04-10T06:05:20.302Z,1002.40
2019-04-10T06:06:20.031Z,1002.45
2019-04-10T06:07:19.725Z,1002.52
2019-04-10T06:08:19.708Z,1002.42
2019-04-10T06:09:20.571Z,1002.42
2019-04-10T06:10:19.750Z,1002.49
2019-04-10T06:11:20.550Z,1002.52
2019-04-10T06:12:20.323Z,1002.50
2019-04-10T06:13:19.653Z,1002.55
2019-04-10T06:14:19.641Z,1002.56
2019-04-10T06:15:19.630Z,1002.60
2019-04-10T06:16:19.677Z,1002.61
2019-04-10T06:17:20.598Z,1002.53
2019-04-10T06:18:20.706Z,1002.62
2019-04-10T06:19:19.978Z,1002.61
2019-04-10T06:20:20.816Z,1002.65
2019-04-10T06:21:19.560Z,1002.57
2019-04-10T06:22:20.740Z,1002.59
2019-04-10T06:23:19.561Z,1002.65
2019-04-10T06:24:20.403Z,1002.59
2019-04-10T06:25:21.484Z,1002.61
2019-04-10T06:26:19.951Z,1002.54
2019-04-10T06:27:20.518Z,1002.56
2019-04-10T06:28:19.476Z,1002.65
2019-04-10T06:29:19.466Z,1002.67
2019-04-10T06:30:19.753Z,1002.52
2019-04-10T06:31:19.446Z,1002.65
2019-04-10T06:32:19.453Z,1002.67
2019-04-10T06:33:20.132Z,1002.57
2019-04-10T06:34:20.515Z,1002.63
2019-04-10T06:35:19.754Z,1002.71
2019-04-10T06:36:19.581Z,1002.74
2019-04-10T06:37:19.394Z,1002.78
2019-04-10T06:38:19.364Z,1002.76
2019-04-10T06:39:20.422Z,1002.74
2019-04-10T06:40:22.511Z,1002.76
2019-04-10T06:41:20.327Z,1002.75
2019-04-10T06:42:20.311Z,1002.77
2019-04-10T06:43:19.327Z,1002.76
2019-04-10T06:44:19.549Z,1002.86
2019-04-10T06:45:19.861Z,1002.77
2019-04-10T06:46:20.131Z,1002.81
2019-04-10T06:47:20.278Z,1002.76
2019-04-10T06:48:19.316Z,1002.82
2019-04-10T06:49:19.234Z,1002.79
2019-04-10T06:50:19.223Z,1002.80
2019-04-10T06:51:21.025Z,1002.74
2019-04-10T06:52:19.200Z,1002.79
2019-04-10T06:53:19.205Z,1002.91
2019-04-10T06:54:19.188Z,1002.80
2019-04-10T06:55:19.164Z,1002.87
2019-04-10T06:56:19.151Z,1002.88
2019-04-10T06:57:19.143Z,1002.94
2019-04-10T06:58:20.106Z,1002.84
2019-04-10T06:59:19.201Z,1002.89
2019-04-10T07:00:26.140Z,1002.94
2019-04-10T07:01:22.391Z,1003.02
2019-04-10T07:02:25.619Z,1002.94
2019-04-10T07:03:21.139Z,1003.03
2019-04-10T07:04:21.866Z,1002.98
2019-04-10T07:05:20.052Z,1003.06
2019-04-10T07:06:22.334Z,1003.08
2019-04-10T07:07:21.842Z,1003.10
2019-04-10T07:08:22.185Z,1003.01
2019-04-10T07:09:21.323Z,1003.07
2019-04-10T07:10:27.326Z,1003.10
2019-04-10T07:11:21.744Z,1003.05
2019-04-10T07:12:18.970Z,1003.14
2019-04-10T07:13:19.706Z,1003.10
2019-04-10T07:14:18.970Z,1003.10
2019-04-10T07:15:21.190Z,1003.20
2019-04-10T07:16:20.011Z,1003.14
2019-04-10T07:17:19.921Z,1003.19
2019-04-10T07:18:20.612Z,1003.20
2019-04-10T07:19:19.849Z,1003.17
2019-04-10T07:20:20.638Z,1003.20
2019-04-10T07:21:20.063Z,1003.27
2019-04-10T07:22:18.855Z,1003.28
2019-04-10T07:23:24.187Z,1003.24
2019-04-10T07:24:20.825Z,1003.24
2019-04-10T07:25:19.639Z,1003.40
2019-04-10T07:26:29.118Z,1003.25
2019-04-10T07:27:19.796Z,1003.33
2019-04-10T07:28:19.519Z,1003.41
2019-04-10T07:29:21.084Z,1003.30
2019-04-10T07:30:24.093Z,1003.33
2019-04-10T07:31:19.751Z,1003.30
2019-04-10T07:32:19.465Z,1003.36
2019-04-10T07:33:20.696Z,1003.36
2019-04-10T07:34:22.020Z,1003.41
2019-04-10T07:35:21.760Z,1003.43
2019-04-10T07:36:18.701Z,1003.43
2019-04-10T07:37:21.690Z,1003.40
2019-04-10T07:38:21.197Z,1003.44
2019-04-10T07:39:18.686Z,1003.39
2019-04-10T07:40:18.740Z,1003.42
2019-04-10T07:41:21.910Z,1003.42
2019-04-10T07:42:28.389Z,1003.40
2019-04-10T07:43:25.449Z,1003.45
2019-04-10T07:44:19.629Z,1003.46
2019-04-10T07:45:18.595Z,1003.41
2019-04-10T07:46:18.584Z,1003.49
2019-04-10T07:47:20.540Z,1003.54
2019-04-10T07:48:18.559Z,1003.50
2019-04-10T07:49:19.735Z,1003.52
2019-04-10T07:50:18.558Z,1003.56
2019-04-10T07:51:19.031Z,1003.59
2019-04-10T07:52:20.085Z,1003.57
2019-04-10T07:53:18.963Z,1003.62
2019-04-10T07:54:21.244Z,1003.55
2019-04-10T07:55:19.057Z,1003.59
2019-04-10T07:56:20.807Z,1003.61
2019-04-10T07:57:18.462Z,1003.58
2019-04-10T07:58:19.397Z,1003.61
2019-04-10T07:59:18.551Z,1003.58
2019-04-10T08:00:18.424Z,1003.60
2019-04-10T08:01:18.430Z,1003.54
2019-04-10T08:02:18.402Z,1003.63
2019-04-10T08:03:18.838Z,1003.62
2019-04-10T08:04:18.395Z,1003.60
2019-04-10T08:05:18.845Z,1003.61
2019-04-10T08:06:18.378Z,1003.58
2019-04-10T08:07:26.704Z,1003.61
2019-04-10T08:08:19.449Z,1003.60
2019-04-10T08:09:18.877Z,1003.64
2019-04-10T08:10:18.314Z,1003.66
2019-04-10T08:11:18.323Z,1003.61
2019-04-10T08:12:19.007Z,1003.56
2019-04-10T08:13:18.288Z,1003.63
2019-04-10T08:14:18.269Z,1003.62
2019-04-10T08:15:18.930Z,1003.56
2019-04-10T08:16:18.996Z,1003.65
2019-04-10T08:17:18.238Z,1003.60
2019-04-10T08:18:18.923Z,1003.59
2019-04-10T08:19:18.677Z,1003.62
2019-04-10T08:20:18.214Z,1003.64
2019-04-10T08:21:18.212Z,1003.64
2019-04-10T08:22:18.184Z,1003.60
2019-04-10T08:23:18.170Z,1003.60
2019-04-10T08:24:18.221Z,1003.69
2019-04-10T08:25:18.449Z,1003.68
2019-04-10T08:26:18.366Z,1003.69
2019-04-10T08:27:19.251Z,1003.68
2019-04-10T08:28:18.121Z,1003.74
2019-04-10T08:29:18.244Z,1003.71
2019-04-10T08:30:18.093Z,1003.72
2019-04-10T08:31:19.045Z,1003.72
2019-04-10T08:32:18.193Z,1003.73
2019-04-10T08:33:18.058Z,1003.69
2019-04-10T08:34:18.047Z,1003.70
2019-04-10T08:35:18.035Z,1003.65
2019-04-10T08:36:18.042Z,1003.66
2019-04-10T08:37:18.854Z,1003.74
2019-04-10T08:38:18.006Z,1003.71
2019-04-10T08:39:32.177Z,1003.70
2019-04-10T08:40:19.119Z,1003.61
2019-04-10T08:41:19.195Z,1003.64
2019-04-10T08:42:18.905Z,1003.68
2019-04-10T08:43:18.091Z,1003.72
2019-04-10T08:44:17.934Z,1003.74
2019-04-10T08:45:18.908Z,1003.72
2019-04-10T08:46:17.934Z,1003.69
2019-04-10T08:47:17.905Z,1003.80
2019-04-10T08:48:17.892Z,1003.80
2019-04-10T08:49:18.391Z,1003.74
2019-04-10T08:50:17.876Z,1003.79
2019-04-10T08:51:17.880Z,1003.78
2019-04-10T08:52:17.850Z,1003.76
2019-04-10T08:53:18.120Z,1003.75
2019-04-10T08:54:18.472Z,1003.76
2019-04-10T08:55:17.872Z,1003.77
2019-04-10T08:56:18.434Z,1003.87
2019-04-10T08:57:17.797Z,1003.87
2019-04-10T08:58:18.838Z,1003.82
2019-04-10T08:59:17.784Z,1003.91
2019-04-10T09:00:18.621Z,1003.78
2019-04-10T09:01:17.769Z,1003.87
2019-04-10T09:02:18.021Z,1003.77
2019-04-10T09:03:17.728Z,1003.80
2019-04-10T09:04:17.925Z,1003.81
2019-04-10T09:05:17.707Z,1003.83
2019-04-10T09:06:17.718Z,1003.79
2019-04-10T09:07:17.886Z,1003.77
2019-04-10T09:08:17.677Z,1003.78
2019-04-10T09:09:17.663Z,1003.80
2019-04-10T09:10:18.529Z,1003.86
2019-04-10T09:11:25.577Z,1003.87
2019-04-10T09:12:19.759Z,1003.84
2019-04-10T09:13:17.623Z,1003.95
2019-04-10T09:14:17.620Z,1003.85
2019-04-10T09:15:18.157Z,1003.85
2019-04-10T09:16:18.407Z,1003.81
2019-04-10T09:17:17.594Z,1003.82
2019-04-10T09:18:17.893Z,1003.83
2019-04-10T09:19:18.862Z,1003.80
2019-04-10T09:20:18.419Z,1003.77
2019-04-10T09:21:17.569Z,1003.81
2019-04-10T09:22:17.539Z,1003.80
2019-04-10T09:23:40.952Z,1003.83
2019-04-10T09:24:19.523Z,1003.78
2019-04-10T09:25:17.863Z,1003.85
2019-04-10T09:26:17.485Z,1003.85
2019-04-10T09:27:17.485Z,1003.81
2019-04-10T09:28:18.190Z,1003.78
2019-04-10T09:29:18.164Z,1003.78
2019-04-10T09:30:18.429Z,1003.68
2019-04-10T09:31:17.731Z,1003.71
2019-04-10T09:32:18.119Z,1003.74
2019-04-10T09:33:23.357Z,1003.74
2019-04-10T09:34:18.393Z,1003.76
2019-04-10T09:35:17.380Z,1003.74
2019-04-10T09:36:18.346Z,1003.74
2019-04-10T09:37:17.802Z,1003.68
2019-04-10T09:38:17.343Z,1003.71
2019-04-10T09:39:17.338Z,1003.75
2019-04-10T09:40:18.337Z,1003.74
2019-04-10T09:41:17.532Z,1003.68
2019-04-10T09:42:17.334Z,1003.72
2019-04-10T09:43:17.747Z,1003.70
2019-04-10T09:44:17.278Z,1003.69
2019-04-10T09:45:17.761Z,1003.69
2019-04-10T09:46:18.206Z,1003.62
2019-04-10T09:47:18.390Z,1003.80
2019-04-10T09:48:17.235Z,1003.70
2019-04-10T09:49:17.228Z,1003.73
2019-04-10T09:50:17.317Z,1003.73
2019-04-10T09:51:19.442Z,1003.85
2019-04-10T09:52:17.216Z,1003.87
2019-04-10T09:53:17.216Z,1003.73
2019-04-10T09:54:17.501Z,1003.72
2019-04-10T09:55:18.010Z,1003.72
2019-04-10T09:56:17.311Z,1003.68
2019-04-10T09:57:17.845Z,1003.67
2019-04-10T09:58:17.597Z,1003.70
2019-04-10T09:59:18.065Z,1003.69
2019-04-10T10:00:17.106Z,1003.77
2019-04-10T10:01:17.902Z,1003.65
2019-04-10T10:02:17.659Z,1003.70
2019-04-10T10:03:17.357Z,1003.75
2019-04-10T10:04:17.360Z,1003.62
2019-04-10T10:05:18.116Z,1003.67
2019-04-10T10:06:24.279Z,1003.67
2019-04-10T10:07:18.609Z,1003.70
2019-04-10T10:08:17.057Z,1003.61
2019-04-10T10:09:17.629Z,1003.66
2019-04-10T10:10:17.240Z,1003.62
2019-04-10T10:11:18.056Z,1003.66
2019-04-10T10:12:17.888Z,1003.68
2019-04-10T10:13:17.272Z,1003.53
2019-04-10T10:14:16.975Z,1003.58
2019-04-10T10:15:16.955Z,1003.55
2019-04-10T10:16:17.045Z,1003.55
2019-04-10T10:17:16.951Z,1003.45
2019-04-10T10:18:17.227Z,1003.52
2019-04-10T10:19:16.919Z,1003.58
2019-04-10T10:20:16.885Z,1003.62
2019-04-10T10:21:16.878Z,1003.54
2019-04-10T10:22:16.943Z,1003.53
2019-04-10T10:23:17.913Z,1003.59
2019-04-10T10:24:16.860Z,1003.63
2019-04-10T10:25:17.395Z,1003.56
2019-04-10T10:26:17.564Z,1003.57
2019-04-10T10:27:17.750Z,1003.53
2019-04-10T10:28:16.800Z,1003.59
2019-04-10T10:29:17.669Z,1003.56
2019-04-10T10:30:17.624Z,1003.69
2019-04-10T10:31:16.875Z,1003.63
2019-04-10T10:32:17.098Z,1003.54
2019-04-10T10:33:17.453Z,1003.56
2019-04-10T10:34:16.748Z,1003.58
2019-04-10T10:35:16.852Z,1003.61
2019-04-10T10:36:17.805Z,1003.62
2019-04-10T10:37:16.774Z,1003.68
2019-04-10T10:38:16.734Z,1003.68
2019-04-10T10:39:17.320Z,1003.57
2019-04-10T10:40:17.209Z,1003.64
2019-04-10T10:41:16.654Z,1003.67
2019-04-10T10:42:16.652Z,1003.66
2019-04-10T10:43:16.633Z,1003.63
2019-04-10T10:44:17.326Z,1003.62
2019-04-10T10:45:16.637Z,1003.67
2019-04-10T10:46:17.532Z,1003.58
2019-04-10T10:47:16.585Z,1003.59
2019-04-10T10:48:17.527Z,1003.58
2019-04-10T10:49:16.567Z,1003.69
2019-04-10T10:50:17.178Z,1003.67
2019-04-10T10:51:16.543Z,1003.61
2019-04-10T10:52:17.523Z,1003.66
2019-04-10T10:53:16.517Z,1003.63
2019-04-10T10:54:16.890Z,1003.69
2019-04-10T10:55:16.522Z,1003.68
2019-04-10T10:56:16.487Z,1003.64
2019-04-10T10:57:17.241Z,1003.69
2019-04-10T10:58:16.467Z,1003.71
2019-04-10T10:59:17.510Z,1003.69
2019-04-10T11:00:16.989Z,1003.63
2019-04-10T11:01:16.432Z,1003.65
2019-04-10T11:02:17.119Z,1003.67
2019-04-10T11:03:16.410Z,1003.68
2019-04-10T11:04:16.397Z,1003.76
2019-04-10T11:05:16.971Z,1003.68
2019-04-10T11:06:17.738Z,1003.71
2019-04-10T11:07:16.367Z,1003.57
2019-04-10T11:08:17.467Z,1003.69
2019-04-10T11:09:16.347Z,1003.70
2019-04-10T11:10:21.833Z,1003.69
2019-04-10T11:11:17.340Z,1003.68
2019-04-10T11:12:16.313Z,1003.66
2019-04-10T11:13:16.704Z,1003.59
2019-04-10T11:14:16.294Z,1003.64
2019-04-10T11:15:16.293Z,1003.69
2019-04-10T11:16:16.983Z,1003.57
2019-04-10T11:17:16.257Z,1003.58
2019-04-10T11:18:16.246Z,1003.65
2019-04-10T11:19:17.282Z,1003.60
2019-04-10T11:20:17.645Z,1003.66
2019-04-10T11:21:16.779Z,1003.62
2019-04-10T11:22:19.975Z,1003.57
2019-04-10T11:23:18.173Z,1003.58
2019-04-10T11:24:17.275Z,1003.62
2019-04-10T11:25:16.169Z,1003.57
2019-04-10T11:26:20.564Z,1003.59
2019-04-10T11:27:18.036Z,1003.56
2019-04-10T11:28:16.378Z,1003.55
2019-04-10T11:29:17.465Z,1003.63
2019-04-10T11:30:16.170Z,1003.64
2019-04-10T11:31:17.330Z,1003.64
2019-04-10T11:32:16.113Z,1003.62
2019-04-10T11:33:17.570Z,1003.60
2019-04-10T11:34:16.508Z,1003.65
2019-04-10T11:35:17.408Z,1003.63
2019-04-10T11:36:17.443Z,1003.62
2019-04-10T11:37:24.171Z,1003.63
2019-04-10T11:38:17.595Z,1003.58
2019-04-10T11:39:22.735Z,1003.62
2019-04-10T11:40:18.038Z,1003.57
2019-04-10T11:41:18.919Z,1003.48
2019-04-10T11:42:16.009Z,1003.58
2019-04-10T11:43:16.671Z,1003.63
2019-04-10T11:44:17.190Z,1003.56
2019-04-10T11:45:17.036Z,1003.66
2019-04-10T11:46:16.921Z,1003.42
2019-04-10T11:47:17.413Z,1003.60
2019-04-10T11:48:18.302Z,1003.53
2019-04-10T11:49:17.806Z,1003.70
2019-04-10T11:50:18.386Z,1003.69
2019-04-10T11:51:16.479Z,1003.60
2019-04-10T11:52:17.330Z,1003.70
2019-04-10T11:53:17.763Z,1003.63
2019-04-10T11:54:18.116Z,1003.57
2019-04-10T11:56:19.143Z,1003.63
2019-04-10T11:57:16.701Z,1003.58
2019-04-10T11:58:17.793Z,1003.59
2019-04-10T11:59:21.160Z,1003.57
2019-04-10T12:00:19.844Z,1003.61
2019-04-10T12:01:17.556Z,1003.59
2019-04-10T12:02:20.460Z,1003.57
2019-04-10T12:03:18.172Z,1003.54
2019-04-10T12:04:19.218Z,1003.49
2019-04-10T12:06:18.535Z,1003.55
2019-04-10T12:08:36.204Z,1003.68